Hovedside
METAR-TAF:

METAR-TAF

Lufthavner :

Sveg lufthavn

Sveg, Sverige

breddegrad: 62-02-52N, lengdegrad: 014-25-22E, høyde over havet: 359 m

Gjeldene værobservasjon

Denne rapporten ble laget for 27 minutter siden, klokken 06:50 UTC
Flau vind
Temperatur 10°C
Luftfuktighet 50%
Trykk 1023 hPa
Sikt 10 km eller mer

METAR: ESND 230650Z AUTO 00000KT 9999 NCD 10/00 Q1023

Tid: 09:17 (07:17 UTC)


TAF: fraværende

Værobservasjoner og værvarsel for over 4000 flyplasser (METAR- og TAF-rapporter).

Tilgjengelige stasjoner er representert av de røde og gule prikkene på kartet.

Hold musepekeren over prikken for å se navnet på stasjonen.

Klikk så for å se værobservasjoner og -varsler.

For å forandre kartet kan du klikke på den grønne knappen med svart kryss for å zoome inn, på den grønne knappen med strek for å zoome ut, eller på de grønne pilene for å se tilstøtende kart.


METAR-TAF: